Comet, North Carolina
Current Conditions -  °F | °C
As of 10:15 AM on Friday 31 Oct 2014 (Local Time) from KGEV Reporting Station
Overcast Overcast  
Wind Chill:   Ceiling: 1100
Heat Index:   Visibility: 10mi
Dew Point:   Wind: 0mph
Humidity: 88%   Direction: NA
Pressure: 29.94"   Gusts: NA
Location:  36.524°N, 81.538°W
Report Text: KGEV 311415Z AUTO 00000KT 10SM OVC011 04/02 A2994 RMK AO2 T00420023
Loading
Personal Weather Stations






























Interactive Weather Map
Tropical Storm Tracking
New forecast layout! Learn more

10-Day Weather Forecast

Advertisements
Track Severe Weather on mobile